createdAt,value
2019-01-20T00:01:33.098Z,15.23
2019-01-20T00:04:01.875Z,15.63
2019-01-20T00:06:30.691Z,16.40
2019-01-20T00:08:59.499Z,19.83
2019-01-20T00:11:28.298Z,21.47
2019-01-20T00:13:57.099Z,19.93
2019-01-20T00:16:25.906Z,16.80
2019-01-20T00:18:54.708Z,17.67
2019-01-20T00:21:23.518Z,24.53
2019-01-20T00:23:52.308Z,18.07
2019-01-20T00:26:21.767Z,17.23
2019-01-20T00:28:50.559Z,15.63
2019-01-20T00:31:19.357Z,16.13
2019-01-20T00:33:48.234Z,17.87
2019-01-20T00:36:17.067Z,21.73
2019-01-20T00:38:45.904Z,14.27
2019-01-20T00:41:14.711Z,20.67
2019-01-20T00:43:43.507Z,14.03
2019-01-20T00:46:12.319Z,16.97
2019-01-20T00:48:41.103Z,23.00
2019-01-20T00:51:09.901Z,13.13
2019-01-20T00:53:38.726Z,17.13
2019-01-20T00:56:07.592Z,18.77
2019-01-20T00:58:36.390Z,18.90
2019-01-20T01:01:05.220Z,18.20
2019-01-20T01:03:34.015Z,16.10
2019-01-20T01:06:02.853Z,17.90
2019-01-20T01:08:31.657Z,19.13
2019-01-20T01:11:00.453Z,18.10
2019-01-20T01:13:29.235Z,16.83
2019-01-20T01:15:58.038Z,17.90
2019-01-20T01:18:26.849Z,18.23
2019-01-20T01:20:55.639Z,18.20
2019-01-20T01:23:24.501Z,14.63
2019-01-20T01:25:53.367Z,18.20
2019-01-20T01:28:22.159Z,24.50
2019-01-20T01:30:50.964Z,15.43
2019-01-20T01:33:19.845Z,16.13
2019-01-20T01:35:48.724Z,17.30
2019-01-20T01:38:17.511Z,17.30
2019-01-20T01:40:46.423Z,16.23
2019-01-20T01:43:15.222Z,18.33
2019-01-20T01:45:44.006Z,18.33
2019-01-20T01:48:12.812Z,16.03
2019-01-20T01:50:41.609Z,19.20
2019-01-20T01:53:10.414Z,18.83
2019-01-20T01:55:39.205Z,15.97
2019-01-20T01:58:08.083Z,15.77
2019-01-20T02:00:36.887Z,16.90
2019-01-20T02:03:05.668Z,19.20
2019-01-20T02:05:34.498Z,17.03
2019-01-20T02:08:03.370Z,15.20
2019-01-20T02:10:32.241Z,15.57
2019-01-20T02:13:02.017Z,15.43
2019-01-20T02:15:30.839Z,15.43
2019-01-20T02:17:59.620Z,18.37
2019-01-20T02:20:29.126Z,13.23
2019-01-20T02:22:57.969Z,15.27
2019-01-20T02:25:26.755Z,14.47
2019-01-20T02:27:55.825Z,22.87
2019-01-20T02:30:26.692Z,13.53
2019-01-20T02:32:55.479Z,25.00
2019-01-20T02:35:24.262Z,16.30
2019-01-20T02:37:53.051Z,17.10
2019-01-20T02:40:21.847Z,13.50
2019-01-20T02:42:50.628Z,19.50
2019-01-20T02:45:19.432Z,21.13
2019-01-20T02:47:48.214Z,19.77
2019-01-20T02:50:17.212Z,25.80
2019-01-20T02:52:46.029Z,34.17
2019-01-20T02:55:14.829Z,48.27
2019-01-20T02:57:43.631Z,36.07
2019-01-20T03:00:15.626Z,38.03
2019-01-20T03:02:44.419Z,34.90
2019-01-20T03:05:13.234Z,30.77
2019-01-20T03:07:42.034Z,37.63
2019-01-20T03:10:10.951Z,52.17
2019-01-20T03:12:39.818Z,64.17
2019-01-20T03:15:09.145Z,61.67
2019-01-20T03:17:37.922Z,73.23
2019-01-20T03:20:08.843Z,73.67
2019-01-20T03:22:37.660Z,64.13
2019-01-20T03:25:08.526Z,49.13
2019-01-20T03:27:37.328Z,35.53
2019-01-20T03:30:09.097Z,36.43
2019-01-20T03:32:38.013Z,27.33
2019-01-20T03:35:07.046Z,22.70
2019-01-20T03:37:35.879Z,22.60
2019-01-20T03:40:06.824Z,17.20
2019-01-20T03:42:35.688Z,19.77
2019-01-20T03:45:05.193Z,17.90
2019-01-20T03:47:34.635Z,22.07
2019-01-20T03:50:03.414Z,16.93
2019-01-20T03:52:32.216Z,16.83
2019-01-20T03:55:01.006Z,15.57
2019-01-20T03:57:29.807Z,17.90
2019-01-20T03:59:58.612Z,12.23
2019-01-20T04:02:27.644Z,15.10
2019-01-20T04:04:56.443Z,14.23
2019-01-20T04:07:25.235Z,16.03
2019-01-20T04:09:54.151Z,12.73
2019-01-20T04:12:22.946Z,17.37
2019-01-20T04:14:51.753Z,18.83
2019-01-20T04:17:20.545Z,17.83
2019-01-20T04:19:49.334Z,14.57
2019-01-20T04:22:18.128Z,15.03
2019-01-20T04:24:46.911Z,18.07
2019-01-20T04:27:15.731Z,12.77
2019-01-20T04:29:44.551Z,18.73
2019-01-20T04:32:13.433Z,16.37
2019-01-20T04:34:42.214Z,14.53
2019-01-20T04:37:11.023Z,16.63
2019-01-20T04:39:39.818Z,14.63
2019-01-20T04:42:08.632Z,13.93
2019-01-20T04:44:37.425Z,14.70
2019-01-20T04:47:06.216Z,16.00
2019-01-20T04:49:35.009Z,13.67
2019-01-20T04:52:03.863Z,14.60
2019-01-20T04:54:32.749Z,13.77
2019-01-20T04:57:01.625Z,14.83
2019-01-20T04:59:30.423Z,13.80
2019-01-20T05:01:59.276Z,19.47
2019-01-20T05:04:28.125Z,16.37
2019-01-20T05:06:56.910Z,16.30
2019-01-20T05:09:25.706Z,15.63
2019-01-20T05:11:54.511Z,17.73
2019-01-20T05:14:23.370Z,17.37
2019-01-20T05:16:52.177Z,16.40
2019-01-20T05:19:20.978Z,16.20
2019-01-20T05:21:49.888Z,15.03
2019-01-20T05:24:18.760Z,14.97
2019-01-20T05:26:47.563Z,15.93
2019-01-20T05:29:16.373Z,15.07
2019-01-20T05:31:45.168Z,15.67
2019-01-20T05:34:13.970Z,15.20
2019-01-20T05:36:43.334Z,15.63
2019-01-20T05:39:12.114Z,13.27
2019-01-20T05:41:40.924Z,17.67
2019-01-20T05:44:09.711Z,15.83
2019-01-20T05:46:39.224Z,14.70
2019-01-20T05:49:08.024Z,16.07
2019-01-20T05:51:36.831Z,13.13
2019-01-20T05:54:05.637Z,13.40
2019-01-20T05:56:34.454Z,14.83
2019-01-20T05:59:03.256Z,20.60
2019-01-20T06:01:32.127Z,17.00
2019-01-20T06:04:00.962Z,15.70
2019-01-20T06:06:29.763Z,15.60
2019-01-20T06:08:58.977Z,17.90
2019-01-20T06:11:27.774Z,18.27
2019-01-20T06:13:56.579Z,14.80
2019-01-20T06:16:25.519Z,14.77
2019-01-20T06:18:55.497Z,20.30
2019-01-20T06:21:24.334Z,16.43
2019-01-20T06:23:53.164Z,18.90
2019-01-20T06:26:21.960Z,23.53
2019-01-20T06:28:50.779Z,15.63
2019-01-20T06:31:19.606Z,14.93
2019-01-20T06:33:48.394Z,16.63
2019-01-20T06:36:17.209Z,13.80
2019-01-20T06:38:46.051Z,20.23
2019-01-20T06:41:14.843Z,16.50
2019-01-20T06:43:44.328Z,19.93
2019-01-20T06:46:13.143Z,17.63
2019-01-20T06:48:41.964Z,13.90
2019-01-20T06:51:10.755Z,16.93
2019-01-20T06:53:39.601Z,15.20
2019-01-20T06:56:08.473Z,18.10
2019-01-20T06:58:37.264Z,17.20
2019-01-20T07:01:06.107Z,18.13
2019-01-20T07:03:34.895Z,15.93
2019-01-20T07:06:03.712Z,17.20
2019-01-20T07:08:32.659Z,23.47
2019-01-20T07:11:01.516Z,21.43
2019-01-20T07:13:30.363Z,19.77
2019-01-20T07:15:59.227Z,20.10
2019-01-20T07:18:28.019Z,18.47
2019-01-20T07:20:56.826Z,18.47
2019-01-20T07:23:25.664Z,21.20
2019-01-20T07:25:54.454Z,19.63
2019-01-20T07:28:23.332Z,16.37
2019-01-20T07:30:52.921Z,18.73
2019-01-20T07:33:22.749Z,19.80
2019-01-20T07:35:51.575Z,21.37
2019-01-20T07:38:20.370Z,20.33
2019-01-20T07:40:49.176Z,19.57
2019-01-20T07:43:17.996Z,24.47
2019-01-20T07:45:46.799Z,22.40
2019-01-20T07:48:15.591Z,20.00
2019-01-20T07:50:44.387Z,19.13
2019-01-20T07:53:13.187Z,19.00
2019-01-20T07:55:41.991Z,21.40
2019-01-20T07:58:10.881Z,14.93
2019-01-20T08:00:39.716Z,18.03
2019-01-20T08:03:08.531Z,20.77
2019-01-20T08:05:37.439Z,15.83
2019-01-20T08:08:06.235Z,22.40
2019-01-20T08:10:35.126Z,17.47
2019-01-20T08:13:04.156Z,18.20
2019-01-20T08:15:32.971Z,19.03
2019-01-20T08:18:01.856Z,17.13
2019-01-20T08:20:30.726Z,19.97
2019-01-20T08:23:00.196Z,14.93
2019-01-20T08:25:29.002Z,18.73
2019-01-20T08:27:57.837Z,21.70
2019-01-20T08:30:27.965Z,17.70
2019-01-20T08:32:56.758Z,17.70
2019-01-20T08:35:25.650Z,22.13
2019-01-20T08:37:55.451Z,16.40
2019-01-20T08:40:28.337Z,21.90
2019-01-20T08:42:57.192Z,17.83
2019-01-20T08:47:38.010Z,19.63
2019-01-20T08:50:09.977Z,17.53
2019-01-20T08:52:38.780Z,19.07
2019-01-20T08:55:08.684Z,18.17
2019-01-20T08:57:37.500Z,17.63
2019-01-20T09:00:11.371Z,21.23
2019-01-20T09:02:40.225Z,20.07
2019-01-20T09:05:09.191Z,16.87
2019-01-20T09:07:38.022Z,17.47
2019-01-20T09:10:13.009Z,18.37
2019-01-20T09:12:41.827Z,19.47
2019-01-20T09:15:10.627Z,20.30
2019-01-20T09:17:39.421Z,17.47
2019-01-20T09:20:09.023Z,18.20
2019-01-20T09:22:39.056Z,18.47
2019-01-20T09:25:09.531Z,22.23
2019-01-20T09:27:38.539Z,24.40
2019-01-20T09:30:11.438Z,19.10
2019-01-20T09:32:40.230Z,17.93
2019-01-20T09:35:09.460Z,25.97
2019-01-20T09:37:38.263Z,25.07
2019-01-20T09:40:09.376Z,15.37
2019-01-20T09:42:38.134Z,16.53
2019-01-20T09:45:09.947Z,16.27
2019-01-20T09:47:38.887Z,20.87
2019-01-20T09:50:07.838Z,17.33
2019-01-20T09:52:36.643Z,22.63
2019-01-20T09:55:05.982Z,22.37
2019-01-20T09:57:34.976Z,15.23
2019-01-20T10:00:05.646Z,17.90
2019-01-20T10:02:34.514Z,16.13
2019-01-20T10:05:03.320Z,12.63
2019-01-20T10:07:32.252Z,15.33
2019-01-20T10:10:01.131Z,16.40
2019-01-20T10:12:29.950Z,18.73
2019-01-20T10:14:59.593Z,12.97
2019-01-20T10:17:28.448Z,13.93
2019-01-20T10:19:57.323Z,15.77
2019-01-20T10:22:26.191Z,15.47
2019-01-20T10:24:55.104Z,19.27
2019-01-20T10:27:23.977Z,16.30
2019-01-20T10:29:52.819Z,15.53
2019-01-20T10:32:21.602Z,13.53
2019-01-20T10:34:50.507Z,19.70
2019-01-20T10:37:19.312Z,14.77
2019-01-20T10:39:48.327Z,19.37
2019-01-20T10:42:17.164Z,22.40
2019-01-20T10:44:45.986Z,16.47
2019-01-20T10:47:15.029Z,18.60
2019-01-20T10:49:43.878Z,15.47
2019-01-20T10:52:12.695Z,14.77
2019-01-20T10:54:41.590Z,17.77
2019-01-20T10:57:11.070Z,17.17
2019-01-20T10:59:39.899Z,16.47
2019-01-20T11:02:08.700Z,15.63
2019-01-20T11:04:38.055Z,17.30
2019-01-20T11:07:06.847Z,18.57
2019-01-20T11:09:35.816Z,19.17
2019-01-20T11:12:04.631Z,16.83
2019-01-20T11:14:33.464Z,18.03
2019-01-20T11:17:02.292Z,18.00
2019-01-20T11:19:31.336Z,17.97
2019-01-20T11:22:00.196Z,14.57
2019-01-20T11:24:28.980Z,16.30
2019-01-20T11:26:57.777Z,19.47
2019-01-20T11:29:26.631Z,15.57
2019-01-20T11:31:55.512Z,22.77
2019-01-20T11:34:24.295Z,17.27
2019-01-20T11:36:53.087Z,33.47
2019-01-20T11:39:21.911Z,19.00
2019-01-20T11:41:50.699Z,15.67
2019-01-20T11:44:19.571Z,19.37
2019-01-20T11:46:48.512Z,19.27
2019-01-20T11:49:17.398Z,27.53
2019-01-20T11:51:46.194Z,25.13
2019-01-20T11:54:14.979Z,19.47
2019-01-20T11:56:43.763Z,14.57
2019-01-20T11:59:14.970Z,13.10
2019-01-20T12:01:43.819Z,15.67
2019-01-20T12:04:12.584Z,16.87
2019-01-20T12:06:43.339Z,12.23
2019-01-20T12:09:12.141Z,17.83
2019-01-20T12:11:40.946Z,11.57
2019-01-20T12:14:09.739Z,19.97
2019-01-20T12:16:39.512Z,10.73
2019-01-20T12:19:08.311Z,9.20
2019-01-20T12:21:37.167Z,10.87
2019-01-20T12:24:05.976Z,14.80
2019-01-20T12:26:34.797Z,17.67
2019-01-20T12:29:03.659Z,13.47
2019-01-20T12:31:32.488Z,12.00
2019-01-20T12:34:01.285Z,16.57
2019-01-20T12:36:30.174Z,15.67
2019-01-20T12:38:59.081Z,16.07
2019-01-20T12:41:27.859Z,12.67
2019-01-20T12:43:56.665Z,13.90
2019-01-20T12:46:25.484Z,12.83
2019-01-20T12:48:54.323Z,21.83
2019-01-20T12:51:28.457Z,14.03
2019-01-20T12:53:52.016Z,23.70
2019-01-20T12:56:20.801Z,14.63
2019-01-20T12:58:49.579Z,16.37
2019-01-20T13:01:18.359Z,11.70
2019-01-20T13:03:47.257Z,16.57
2019-01-20T13:06:16.244Z,15.93
2019-01-20T13:08:45.748Z,13.67
2019-01-20T13:11:14.637Z,11.17
2019-01-20T13:13:44.609Z,15.73
2019-01-20T13:16:13.411Z,13.20
2019-01-20T13:18:43.430Z,14.00
2019-01-20T13:21:12.282Z,16.17
2019-01-20T13:23:41.071Z,15.90
2019-01-20T13:26:09.966Z,17.10
2019-01-20T13:28:39.943Z,16.87
2019-01-20T13:31:08.779Z,15.60
2019-01-20T13:33:37.748Z,16.17
2019-01-20T13:36:07.227Z,18.47
2019-01-20T13:38:36.239Z,17.97
2019-01-20T13:41:12.747Z,16.37
2019-01-20T13:43:41.597Z,19.77
2019-01-20T13:46:10.377Z,21.20
2019-01-20T13:48:39.206Z,28.37
2019-01-20T13:51:07.996Z,17.57
2019-01-20T13:53:38.335Z,18.77
2019-01-20T13:56:05.630Z,16.67
2019-01-20T13:58:34.540Z,60.27
2019-01-20T14:01:03.326Z,21.73
2019-01-20T14:03:33.246Z,18.77
2019-01-20T14:06:02.034Z,18.77
2019-01-20T14:08:30.835Z,16.13
2019-01-20T14:10:59.611Z,25.10
2019-01-20T14:13:28.451Z,17.67
2019-01-20T14:15:57.239Z,16.63
2019-01-20T14:18:26.195Z,26.90
2019-01-20T14:20:54.939Z,18.50
2019-01-20T14:23:25.696Z,24.47
2019-01-20T14:25:54.609Z,18.07
2019-01-20T14:28:23.396Z,15.33
2019-01-20T14:30:52.170Z,17.33
2019-01-20T14:33:20.975Z,16.10
2019-01-20T14:35:49.756Z,14.27
2019-01-20T14:38:18.583Z,14.40
2019-01-20T14:40:47.431Z,16.67
2019-01-20T14:43:16.219Z,13.10
2019-01-20T14:45:44.994Z,11.33
2019-01-20T14:48:13.855Z,12.80
2019-01-20T14:50:43.441Z,13.17
2019-01-20T14:53:12.227Z,14.77
2019-01-20T14:55:41.038Z,16.10
2019-01-20T14:58:10.133Z,15.07
2019-01-20T15:00:39.056Z,16.40
2019-01-20T15:03:08.174Z,12.33
2019-01-20T15:05:36.991Z,14.50
2019-01-20T15:08:06.789Z,13.33
2019-01-20T15:10:35.578Z,15.83
2019-01-20T15:13:04.528Z,19.23
2019-01-20T15:15:35.370Z,16.53
2019-01-20T15:18:04.695Z,15.13
2019-01-20T15:20:33.536Z,14.57
2019-01-20T15:23:02.319Z,15.43
2019-01-20T15:25:31.132Z,14.27
2019-01-20T15:27:59.906Z,14.93
2019-01-20T15:30:30.089Z,15.10
2019-01-20T15:33:00.180Z,17.60
2019-01-20T15:35:32.096Z,14.93
2019-01-20T15:38:00.878Z,13.87
2019-01-20T15:40:29.699Z,17.33
2019-01-20T15:42:58.509Z,16.63
2019-01-20T15:45:27.307Z,17.27
2019-01-20T15:47:56.084Z,15.77
2019-01-20T15:50:27.171Z,13.40
2019-01-20T15:52:55.963Z,15.60
2019-01-20T15:55:24.838Z,14.77
2019-01-20T15:57:53.785Z,17.87
2019-01-20T16:00:24.953Z,14.13
2019-01-20T16:02:57.083Z,19.63
2019-01-20T16:05:27.649Z,22.13
2019-01-20T16:07:56.635Z,22.50
2019-01-20T16:10:25.474Z,28.23
2019-01-20T16:12:54.205Z,17.13
2019-01-20T16:15:25.142Z,18.37
2019-01-20T16:17:55.410Z,15.67
2019-01-20T16:20:24.582Z,16.30
2019-01-20T16:22:53.618Z,18.20
2019-01-20T16:25:24.546Z,19.27
2019-01-20T16:27:53.963Z,18.30
2019-01-20T16:30:25.193Z,23.50
2019-01-20T16:32:55.782Z,15.07
2019-01-20T16:35:32.572Z,21.00
2019-01-20T16:38:04.360Z,15.40
2019-01-20T16:40:34.129Z,21.60
2019-01-20T16:43:03.050Z,19.30
2019-01-20T16:45:42.166Z,19.03
2019-01-20T16:48:06.354Z,15.63
2019-01-20T16:50:35.811Z,20.87
2019-01-20T16:53:04.686Z,17.33
2019-01-20T16:55:33.498Z,15.53
2019-01-20T16:58:02.302Z,21.73
2019-01-20T17:00:32.541Z,19.20
2019-01-20T17:03:01.395Z,13.73
2019-01-20T17:05:30.174Z,17.80
2019-01-20T17:07:58.978Z,15.03
2019-01-20T17:10:31.401Z,64.67
2019-01-20T17:12:58.960Z,39.63
2019-01-20T17:15:30.990Z,27.70
2019-01-20T17:18:00.924Z,23.50
2019-01-20T17:20:29.755Z,28.93
2019-01-20T17:22:58.594Z,31.73
2019-01-20T17:25:27.383Z,20.80
2019-01-20T17:27:56.235Z,22.40
2019-01-20T17:30:26.970Z,22.13
2019-01-20T17:32:55.916Z,20.50
2019-01-20T17:35:24.745Z,24.87
2019-01-20T17:37:53.536Z,21.00
2019-01-20T17:40:23.870Z,20.43
2019-01-20T17:42:54.504Z,15.70
2019-01-20T17:45:28.112Z,20.83
2019-01-20T17:47:56.892Z,20.97
2019-01-20T17:50:28.861Z,25.07
2019-01-20T17:52:57.641Z,23.43
2019-01-20T17:55:26.517Z,26.60
2019-01-20T17:57:55.392Z,38.17
2019-01-20T18:00:29.779Z,32.40
2019-01-20T18:02:58.546Z,22.70
2019-01-20T18:05:27.335Z,22.97
2019-01-20T18:07:56.140Z,25.13
2019-01-20T18:10:24.923Z,21.10
2019-01-20T18:12:53.728Z,24.43
2019-01-20T18:15:22.593Z,22.13
2019-01-20T18:17:51.383Z,22.20
2019-01-20T18:20:22.289Z,23.63
2019-01-20T18:22:51.095Z,22.43
2019-01-20T18:25:19.971Z,30.73
2019-01-20T18:27:48.764Z,24.60
2019-01-20T18:30:20.219Z,27.57
2019-01-20T18:32:49.024Z,25.47
2019-01-20T18:35:17.948Z,21.10
2019-01-20T18:37:46.807Z,26.93
2019-01-20T18:40:16.899Z,25.07
2019-01-20T18:42:45.726Z,24.67
2019-01-20T18:45:16.566Z,24.80
2019-01-20T18:47:46.528Z,28.77
2019-01-20T18:50:17.675Z,40.13
2019-01-20T18:52:47.144Z,31.57
2019-01-20T18:55:16.016Z,24.37
2019-01-20T18:57:44.870Z,33.73
2019-01-20T19:00:17.456Z,29.20
2019-01-20T19:02:46.233Z,26.10
2019-01-20T19:05:15.531Z,30.93
2019-01-20T19:07:44.364Z,25.83
2019-01-20T19:10:14.325Z,26.37
2019-01-20T19:12:43.191Z,22.43
2019-01-20T19:15:13.439Z,23.63
2019-01-20T19:17:42.236Z,26.63
2019-01-20T19:20:13.814Z,26.43
2019-01-20T19:22:42.609Z,29.90
2019-01-20T19:25:11.407Z,23.23
2019-01-20T19:27:40.234Z,26.87
2019-01-20T19:30:13.229Z,28.03
2019-01-20T19:32:45.091Z,23.30
2019-01-20T19:35:15.179Z,25.47
2019-01-20T19:37:43.971Z,30.00
2019-01-20T19:40:12.958Z,25.00
2019-01-20T19:42:41.783Z,29.47
2019-01-20T19:45:12.314Z,40.43
2019-01-20T19:47:41.164Z,30.40
2019-01-20T19:50:10.903Z,32.47
2019-01-20T19:52:39.708Z,29.83
2019-01-20T19:55:14.842Z,33.20
2019-01-20T19:57:43.670Z,33.90
2019-01-20T20:00:14.975Z,38.03
2019-01-20T20:02:43.783Z,30.57
2019-01-20T20:05:14.495Z,36.70
2019-01-20T20:07:43.292Z,32.67
2019-01-20T20:10:14.265Z,32.37
2019-01-20T20:12:43.049Z,30.20
2019-01-20T20:15:14.983Z,39.50
2019-01-20T20:17:44.498Z,26.00
2019-01-20T20:20:13.967Z,32.60
2019-01-20T20:22:42.815Z,30.77
2019-01-20T20:25:12.879Z,32.00
2019-01-20T20:27:41.659Z,31.70
2019-01-20T20:30:13.439Z,38.10
2019-01-20T20:32:42.256Z,34.67
2019-01-20T20:35:11.550Z,37.13
2019-01-20T20:37:40.371Z,36.03
2019-01-20T20:40:10.028Z,34.53
2019-01-20T20:42:38.819Z,32.53
2019-01-20T20:45:09.543Z,30.33
2019-01-20T20:47:38.351Z,33.27
2019-01-20T20:50:08.951Z,31.97
2019-01-20T20:52:37.817Z,30.50
2019-01-20T20:55:07.615Z,35.63
2019-01-20T20:57:36.439Z,36.23
2019-01-20T21:00:10.767Z,34.00
2019-01-20T21:02:39.556Z,45.93
2019-01-20T21:05:09.098Z,35.10
2019-01-20T21:07:37.919Z,43.30
2019-01-20T21:10:09.527Z,34.00
2019-01-20T21:12:38.330Z,44.83
2019-01-20T21:15:08.947Z,43.90
2019-01-20T21:17:37.750Z,40.30
2019-01-20T21:20:08.030Z,33.20
2019-01-20T21:22:36.852Z,38.00
2019-01-20T21:25:07.270Z,32.80
2019-01-20T21:27:37.290Z,33.33
2019-01-20T21:30:09.272Z,38.87
2019-01-20T21:32:38.094Z,46.10
2019-01-20T21:35:07.855Z,49.67
2019-01-20T21:37:36.663Z,37.53
2019-01-20T21:40:06.491Z,40.93
2019-01-20T21:42:35.299Z,39.87
2019-01-20T21:45:04.604Z,45.90
2019-01-20T21:47:34.647Z,43.57
2019-01-20T21:50:04.084Z,45.43
2019-01-20T21:52:32.866Z,43.63
2019-01-20T21:55:01.681Z,41.13
2019-01-20T21:57:30.492Z,39.10
2019-01-20T22:00:00.676Z,40.43
2019-01-20T22:02:29.472Z,33.83
2019-01-20T22:04:58.239Z,34.00
2019-01-20T22:07:27.031Z,39.50
2019-01-20T22:09:56.948Z,35.10
2019-01-20T22:12:25.766Z,42.50
2019-01-20T22:14:54.560Z,36.27
2019-01-20T22:17:23.417Z,56.80
2019-01-20T22:19:52.806Z,41.00
2019-01-20T22:22:21.599Z,42.27
2019-01-20T22:24:50.479Z,38.57
2019-01-20T22:27:22.340Z,35.37
2019-01-20T22:29:52.203Z,37.53
2019-01-20T22:32:20.996Z,41.07
2019-01-20T22:34:49.786Z,48.17
2019-01-20T22:37:19.120Z,50.53
2019-01-20T22:39:47.932Z,47.67
2019-01-20T22:42:16.725Z,45.20
2019-01-20T22:44:45.506Z,42.60
2019-01-20T22:47:14.310Z,41.27
2019-01-20T22:49:43.131Z,45.00
2019-01-20T22:52:11.935Z,45.53
2019-01-20T22:54:40.748Z,47.70
2019-01-20T22:57:09.723Z,52.67
2019-01-20T22:59:38.587Z,47.97
2019-01-20T23:02:07.414Z,47.57
2019-01-20T23:04:36.216Z,43.20
2019-01-20T23:07:05.690Z,47.43
2019-01-20T23:09:34.456Z,45.67
2019-01-20T23:12:03.280Z,42.30
2019-01-20T23:14:33.012Z,39.27
2019-01-20T23:17:07.637Z,231.07
2019-01-20T23:19:30.647Z,93.23
2019-01-20T23:21:59.525Z,90.13
2019-01-20T23:24:28.307Z,103.73
2019-01-20T23:26:58.426Z,67.83
2019-01-20T23:29:27.579Z,56.57
2019-01-20T23:31:56.375Z,59.70
2019-01-20T23:34:25.932Z,56.13
2019-01-20T23:36:54.735Z,62.43
2019-01-20T23:39:23.523Z,48.03
2019-01-20T23:41:55.339Z,51.93
2019-01-20T23:44:24.131Z,48.17
2019-01-20T23:46:53.465Z,46.93
2019-01-20T23:49:22.339Z,54.30
2019-01-20T23:51:51.236Z,51.97
2019-01-20T23:54:19.939Z,51.80
2019-01-20T23:56:48.752Z,47.80
2019-01-20T23:59:17.568Z,50.20
